sensor_id;sensor_type;location;lat;lon;timestamp;P1;durP1;ratioP1;P2;durP2;ratioP2
22172;SDS011;11252;50.596;17.648;2022-11-03T00:02:06;24.77;;;15.13;;
22172;SDS011;11252;50.596;17.648;2022-11-03T00:04:34;34.20;;;20.60;;
22172;SDS011;11252;50.596;17.648;2022-11-03T00:07:01;26.87;;;16.60;;
22172;SDS011;11252;50.596;17.648;2022-11-03T00:09:29;23.73;;;14.90;;
22172;SDS011;11252;50.596;17.648;2022-11-03T00:11:58;27.57;;;16.33;;
22172;SDS011;11252;50.596;17.648;2022-11-03T00:14:26;23.50;;;14.80;;
22172;SDS011;11252;50.596;17.648;2022-11-03T00:16:54;28.37;;;16.20;;
22172;SDS011;11252;50.596;17.648;2022-11-03T00:19:21;32.07;;;18.47;;
22172;SDS011;11252;50.596;17.648;2022-11-03T00:21:49;30.80;;;17.33;;
22172;SDS011;11252;50.596;17.648;2022-11-03T00:24:16;24.87;;;15.23;;
22172;SDS011;11252;50.596;17.648;2022-11-03T00:26:43;22.93;;;13.43;;
22172;SDS011;11252;50.596;17.648;2022-11-03T00:29:11;19.53;;;11.87;;
22172;SDS011;11252;50.596;17.648;2022-11-03T00:31:41;21.07;;;12.90;;
22172;SDS011;11252;50.596;17.648;2022-11-03T00:34:10;13.67;;;9.07;;
22172;SDS011;11252;50.596;17.648;2022-11-03T00:36:42;15.67;;;9.37;;
22172;SDS011;11252;50.596;17.648;2022-11-03T00:39:10;20.20;;;11.97;;
22172;SDS011;11252;50.596;17.648;2022-11-03T00:41:39;20.73;;;13.10;;
22172;SDS011;11252;50.596;17.648;2022-11-03T00:44:06;21.60;;;12.17;;
22172;SDS011;11252;50.596;17.648;2022-11-03T00:46:36;19.73;;;11.50;;
22172;SDS011;11252;50.596;17.648;2022-11-03T00:49:03;31.93;;;13.80;;
22172;SDS011;11252;50.596;17.648;2022-11-03T00:51:31;23.47;;;12.93;;
22172;SDS011;11252;50.596;17.648;2022-11-03T00:54:02;14.40;;;9.20;;
22172;SDS011;11252;50.596;17.648;2022-11-03T00:56:32;15.20;;;9.03;;
22172;SDS011;11252;50.596;17.648;2022-11-03T00:59:06;13.70;;;7.63;;
22172;SDS011;11252;50.596;17.648;2022-11-03T01:01:39;10.67;;;6.67;;
22172;SDS011;11252;50.596;17.648;2022-11-03T01:04:13;13.50;;;7.80;;
22172;SDS011;11252;50.596;17.648;2022-11-03T01:07:00;17.33;;;8.27;;
22172;SDS011;11252;50.596;17.648;2022-11-03T01:09:34;11.93;;;6.80;;
22172;SDS011;11252;50.596;17.648;2022-11-03T01:12:07;9.13;;;5.77;;
22172;SDS011;11252;50.596;17.648;2022-11-03T01:14:47;11.30;;;7.33;;
22172;SDS011;11252;50.596;17.648;2022-11-03T01:17:19;9.13;;;6.27;;
22172;SDS011;11252;50.596;17.648;2022-11-03T01:19:48;10.27;;;6.77;;
22172;SDS011;11252;50.596;17.648;2022-11-03T01:22:17;14.27;;;9.23;;
22172;SDS011;11252;50.596;17.648;2022-11-03T01:24:45;13.43;;;9.27;;
22172;SDS011;11252;50.596;17.648;2022-11-03T01:27:14;21.90;;;10.20;;
22172;SDS011;11252;50.596;17.648;2022-11-03T01:29:44;16.13;;;9.43;;
22172;SDS011;11252;50.596;17.648;2022-11-03T01:32:12;13.50;;;8.20;;
22172;SDS011;11252;50.596;17.648;2022-11-03T01:34:40;11.77;;;7.43;;
22172;SDS011;11252;50.596;17.648;2022-11-03T01:37:08;20.90;;;11.57;;
22172;SDS011;11252;50.596;17.648;2022-11-03T01:39:35;24.17;;;11.80;;
22172;SDS011;11252;50.596;17.648;2022-11-03T01:42:03;18.53;;;9.00;;
22172;SDS011;11252;50.596;17.648;2022-11-03T01:44:31;28.73;;;14.47;;
22172;SDS011;11252;50.596;17.648;2022-11-03T01:47:14;22.10;;;13.20;;
22172;SDS011;11252;50.596;17.648;2022-11-03T01:54:56;27.57;;;16.27;;
22172;SDS011;11252;50.596;17.648;2022-11-03T01:57:32;26.10;;;14.87;;
22172;SDS011;11252;50.596;17.648;2022-11-03T02:00:06;24.37;;;13.47;;
22172;SDS011;11252;50.596;17.648;2022-11-03T02:02:34;22.43;;;13.43;;
22172;SDS011;11252;50.596;17.648;2022-11-03T02:05:02;21.03;;;13.53;;
22172;SDS011;11252;50.596;17.648;2022-11-03T02:07:36;17.37;;;11.33;;
22172;SDS011;11252;50.596;17.648;2022-11-03T02:10:09;19.30;;;12.03;;
22172;SDS011;11252;50.596;17.648;2022-11-03T02:12:36;16.13;;;11.87;;
22172;SDS011;11252;50.596;17.648;2022-11-03T02:15:09;20.47;;;12.37;;
22172;SDS011;11252;50.596;17.648;2022-11-03T02:17:40;20.90;;;13.53;;
22172;SDS011;11252;50.596;17.648;2022-11-03T02:20:30;25.00;;;13.37;;
22172;SDS011;11252;50.596;17.648;2022-11-03T02:25:44;15.03;;;8.40;;
22172;SDS011;11252;50.596;17.648;2022-11-03T02:28:17;14.37;;;8.50;;
22172;SDS011;11252;50.596;17.648;2022-11-03T02:30:57;20.03;;;10.87;;
22172;SDS011;11252;50.596;17.648;2022-11-03T02:33:54;22.37;;;11.33;;
22172;SDS011;11252;50.596;17.648;2022-11-03T02:36:30;24.00;;;12.47;;
22172;SDS011;11252;50.596;17.648;2022-11-03T02:41:55;17.70;;;10.70;;
22172;SDS011;11252;50.596;17.648;2022-11-03T02:44:24;19.90;;;11.03;;
22172;SDS011;11252;50.596;17.648;2022-11-03T02:46:55;19.03;;;11.97;;
22172;SDS011;11252;50.596;17.648;2022-11-03T02:49:26;24.87;;;14.30;;
22172;SDS011;11252;50.596;17.648;2022-11-03T02:52:00;25.20;;;14.20;;
22172;SDS011;11252;50.596;17.648;2022-11-03T02:54:30;31.10;;;14.23;;
22172;SDS011;11252;50.596;17.648;2022-11-03T02:57:06;18.73;;;11.77;;
22172;SDS011;11252;50.596;17.648;2022-11-03T02:59:52;11.40;;;7.80;;
22172;SDS011;11252;50.596;17.648;2022-11-03T03:02:33;17.63;;;10.83;;
22172;SDS011;11252;50.596;17.648;2022-11-03T03:05:07;22.77;;;12.80;;
22172;SDS011;11252;50.596;17.648;2022-11-03T03:07:37;19.27;;;12.50;;
22172;SDS011;11252;50.596;17.648;2022-11-03T03:10:18;14.03;;;8.33;;
22172;SDS011;11252;50.596;17.648;2022-11-03T03:12:50;11.67;;;7.33;;
22172;SDS011;11252;50.596;17.648;2022-11-03T03:15:26;10.83;;;6.97;;
22172;SDS011;11252;50.596;17.648;2022-11-03T03:18:23;12.33;;;8.07;;
22172;SDS011;11252;50.596;17.648;2022-11-03T03:21:04;17.93;;;11.37;;
22172;SDS011;11252;50.596;17.648;2022-11-03T03:23:40;15.73;;;10.20;;
22172;SDS011;11252;50.596;17.648;2022-11-03T03:26:24;14.63;;;9.73;;
22172;SDS011;11252;50.596;17.648;2022-11-03T03:29:02;19.10;;;10.90;;
22172;SDS011;11252;50.596;17.648;2022-11-03T03:31:35;20.10;;;12.03;;
22172;SDS011;11252;50.596;17.648;2022-11-03T03:34:07;16.97;;;10.40;;
22172;SDS011;11252;50.596;17.648;2022-11-03T03:36:56;16.03;;;10.33;;
22172;SDS011;11252;50.596;17.648;2022-11-03T03:39:27;16.53;;;10.60;;
22172;SDS011;11252;50.596;17.648;2022-11-03T03:41:58;17.77;;;11.00;;
22172;SDS011;11252;50.596;17.648;2022-11-03T03:44:29;15.60;;;10.50;;
22172;SDS011;11252;50.596;17.648;2022-11-03T03:47:01;12.97;;;9.70;;
22172;SDS011;11252;50.596;17.648;2022-11-03T03:49:32;11.57;;;8.30;;
22172;SDS011;11252;50.596;17.648;2022-11-03T03:51:59;9.87;;;7.67;;
22172;SDS011;11252;50.596;17.648;2022-11-03T03:54:29;12.63;;;8.40;;
22172;SDS011;11252;50.596;17.648;2022-11-03T03:57:01;17.23;;;10.53;;
22172;SDS011;11252;50.596;17.648;2022-11-03T03:59:30;18.10;;;12.43;;
22172;SDS011;11252;50.596;17.648;2022-11-03T04:01:58;72.80;;;56.90;;
22172;SDS011;11252;50.596;17.648;2022-11-03T04:04:26;88.90;;;58.67;;
22172;SDS011;11252;50.596;17.648;2022-11-03T04:06:54;39.13;;;30.20;;
22172;SDS011;11252;50.596;17.648;2022-11-03T04:09:41;25.70;;;18.60;;
22172;SDS011;11252;50.596;17.648;2022-11-03T04:12:08;25.93;;;16.23;;
22172;SDS011;11252;50.596;17.648;2022-11-03T04:14:54;20.83;;;13.80;;
22172;SDS011;11252;50.596;17.648;2022-11-03T04:17:41;41.83;;;22.50;;
22172;SDS011;11252;50.596;17.648;2022-11-03T04:20:29;59.47;;;38.00;;
22172;SDS011;11252;50.596;17.648;2022-11-03T04:23:15;85.80;;;58.80;;
22172;SDS011;11252;50.596;17.648;2022-11-03T04:25:47;61.03;;;42.90;;
22172;SDS011;11252;50.596;17.648;2022-11-03T04:28:17;36.50;;;25.97;;
22172;SDS011;11252;50.596;17.648;2022-11-03T04:30:45;27.50;;;18.73;;
22172;SDS011;11252;50.596;17.648;2022-11-03T04:33:16;25.60;;;16.33;;
22172;SDS011;11252;50.596;17.648;2022-11-03T04:35:46;29.87;;;20.33;;
22172;SDS011;11252;50.596;17.648;2022-11-03T04:40:43;17.53;;;13.07;;
22172;SDS011;11252;50.596;17.648;2022-11-03T04:43:19;17.00;;;12.60;;
22172;SDS011;11252;50.596;17.648;2022-11-03T04:45:49;16.87;;;12.23;;
22172;SDS011;11252;50.596;17.648;2022-11-03T04:48:22;23.17;;;15.93;;
22172;SDS011;11252;50.596;17.648;2022-11-03T04:50:53;19.27;;;14.60;;
22172;SDS011;11252;50.596;17.648;2022-11-03T04:53:23;20.00;;;13.00;;
22172;SDS011;11252;50.596;17.648;2022-11-03T04:55:53;17.53;;;11.77;;
22172;SDS011;11252;50.596;17.648;2022-11-03T04:58:22;17.17;;;11.10;;
22172;SDS011;11252;50.596;17.648;2022-11-03T05:00:55;15.00;;;9.93;;
22172;SDS011;11252;50.596;17.648;2022-11-03T05:03:26;14.10;;;10.07;;
22172;SDS011;11252;50.596;17.648;2022-11-03T05:06:01;18.23;;;11.87;;
22172;SDS011;11252;50.596;17.648;2022-11-03T05:08:44;19.07;;;10.67;;
22172;SDS011;11252;50.596;17.648;2022-11-03T05:13:56;15.53;;;11.07;;
22172;SDS011;11252;50.596;17.648;2022-11-03T05:16:26;13.93;;;10.20;;
22172;SDS011;11252;50.596;17.648;2022-11-03T05:18:55;13.17;;;9.40;;
22172;SDS011;11252;50.596;17.648;2022-11-03T05:21:24;14.20;;;8.47;;
22172;SDS011;11252;50.596;17.648;2022-11-03T05:23:55;15.43;;;9.57;;
22172;SDS011;11252;50.596;17.648;2022-11-03T05:26:32;15.20;;;9.57;;
22172;SDS011;11252;50.596;17.648;2022-11-03T05:29:02;14.30;;;9.63;;
22172;SDS011;11252;50.596;17.648;2022-11-03T05:31:35;13.23;;;8.97;;
22172;SDS011;11252;50.596;17.648;2022-11-03T05:34:13;12.77;;;9.57;;
22172;SDS011;11252;50.596;17.648;2022-11-03T05:37:19;12.43;;;8.77;;
22172;SDS011;11252;50.596;17.648;2022-11-03T05:39:52;15.50;;;9.50;;
22172;SDS011;11252;50.596;17.648;2022-11-03T05:45:06;18.73;;;10.30;;
22172;SDS011;11252;50.596;17.648;2022-11-03T05:47:45;15.50;;;10.03;;
22172;SDS011;11252;50.596;17.648;2022-11-03T05:50:26;19.87;;;12.77;;
22172;SDS011;11252;50.596;17.648;2022-11-03T05:53:00;22.73;;;12.43;;
22172;SDS011;11252;50.596;17.648;2022-11-03T05:55:38;21.27;;;12.23;;
22172;SDS011;11252;50.596;17.648;2022-11-03T05:58:21;14.30;;;11.17;;
22172;SDS011;11252;50.596;17.648;2022-11-03T06:00:50;15.90;;;11.87;;
22172;SDS011;11252;50.596;17.648;2022-11-03T06:03:24;17.80;;;11.20;;
22172;SDS011;11252;50.596;17.648;2022-11-03T06:05:54;15.20;;;9.50;;
22172;SDS011;11252;50.596;17.648;2022-11-03T06:08:29;17.77;;;11.60;;
22172;SDS011;11252;50.596;17.648;2022-11-03T06:11:05;24.00;;;12.57;;
22172;SDS011;11252;50.596;17.648;2022-11-03T06:13:36;24.57;;;13.73;;
22172;SDS011;11252;50.596;17.648;2022-11-03T06:16:15;21.13;;;13.43;;
22172;SDS011;11252;50.596;17.648;2022-11-03T06:20:19;22.90;;;13.67;;
22172;SDS011;11252;50.596;17.648;2022-11-03T06:22:49;22.57;;;13.10;;
22172;SDS011;11252;50.596;17.648;2022-11-03T06:25:28;23.07;;;11.83;;
22172;SDS011;11252;50.596;17.648;2022-11-03T06:28:00;22.33;;;12.97;;
22172;SDS011;11252;50.596;17.648;2022-11-03T06:30:35;23.67;;;10.90;;
22172;SDS011;11252;50.596;17.648;2022-11-03T06:33:09;19.20;;;10.70;;
22172;SDS011;11252;50.596;17.648;2022-11-03T06:35:42;19.27;;;11.00;;
22172;SDS011;11252;50.596;17.648;2022-11-03T06:38:23;17.80;;;11.07;;
22172;SDS011;11252;50.596;17.648;2022-11-03T06:40:53;17.83;;;11.37;;
22172;SDS011;11252;50.596;17.648;2022-11-03T06:43:23;18.10;;;11.13;;
22172;SDS011;11252;50.596;17.648;2022-11-03T06:45:55;14.20;;;10.13;;
22172;SDS011;11252;50.596;17.648;2022-11-03T06:48:25;18.93;;;9.80;;
22172;SDS011;11252;50.596;17.648;2022-11-03T06:50:56;18.53;;;11.63;;
22172;SDS011;11252;50.596;17.648;2022-11-03T06:53:27;18.67;;;11.53;;
22172;SDS011;11252;50.596;17.648;2022-11-03T06:55:57;19.17;;;12.37;;
22172;SDS011;11252;50.596;17.648;2022-11-03T07:00:59;34.07;;;12.90;;
22172;SDS011;11252;50.596;17.648;2022-11-03T07:03:30;20.27;;;11.97;;
22172;SDS011;11252;50.596;17.648;2022-11-03T07:06:22;23.00;;;12.00;;
22172;SDS011;11252;50.596;17.648;2022-11-03T07:08:52;21.40;;;12.40;;
22172;SDS011;11252;50.596;17.648;2022-11-03T07:13:56;43.40;;;14.07;;
22172;SDS011;11252;50.596;17.648;2022-11-03T07:17:04;37.37;;;12.70;;
22172;SDS011;11252;50.596;17.648;2022-11-03T07:19:34;49.03;;;15.53;;
22172;SDS011;11252;50.596;17.648;2022-11-03T07:22:14;26.07;;;10.43;;
22172;SDS011;11252;50.596;17.648;2022-11-03T07:24:49;30.43;;;12.53;;
22172;SDS011;11252;50.596;17.648;2022-11-03T07:29:56;30.20;;;13.63;;
22172;SDS011;11252;50.596;17.648;2022-11-03T07:32:28;37.43;;;18.63;;
22172;SDS011;11252;50.596;17.648;2022-11-03T07:35:01;46.63;;;20.07;;
22172;SDS011;11252;50.596;17.648;2022-11-03T07:37:50;39.93;;;19.50;;
22172;SDS011;11252;50.596;17.648;2022-11-03T07:40:25;31.77;;;12.90;;
22172;SDS011;11252;50.596;17.648;2022-11-03T07:42:55;34.17;;;18.23;;
22172;SDS011;11252;50.596;17.648;2022-11-03T07:45:36;54.37;;;25.70;;
22172;SDS011;11252;50.596;17.648;2022-11-03T07:50:42;18.07;;;9.13;;
22172;SDS011;11252;50.596;17.648;2022-11-03T07:53:31;22.40;;;6.73;;
22172;SDS011;11252;50.596;17.648;2022-11-03T07:56:12;19.90;;;7.90;;
22172;SDS011;11252;50.596;17.648;2022-11-03T08:01:36;24.47;;;7.27;;
22172;SDS011;11252;50.596;17.648;2022-11-03T08:04:12;25.73;;;7.77;;
22172;SDS011;11252;50.596;17.648;2022-11-03T08:06:48;15.33;;;6.27;;
22172;SDS011;11252;50.596;17.648;2022-11-03T08:09:17;28.60;;;7.30;;
22172;SDS011;11252;50.596;17.648;2022-11-03T08:11:45;32.10;;;7.73;;
22172;SDS011;11252;50.596;17.648;2022-11-03T08:14:13;33.80;;;8.77;;
22172;SDS011;11252;50.596;17.648;2022-11-03T08:16:40;26.17;;;5.73;;
22172;SDS011;11252;50.596;17.648;2022-11-03T08:19:08;37.37;;;12.90;;
22172;SDS011;11252;50.596;17.648;2022-11-03T08:21:35;26.40;;;6.30;;
22172;SDS011;11252;50.596;17.648;2022-11-03T08:24:03;25.53;;;12.70;;
22172;SDS011;11252;50.596;17.648;2022-11-03T08:26:31;19.23;;;9.90;;
22172;SDS011;11252;50.596;17.648;2022-11-03T08:28:58;17.57;;;9.17;;
22172;SDS011;11252;50.596;17.648;2022-11-03T08:31:26;17.43;;;9.37;;
22172;SDS011;11252;50.596;17.648;2022-11-03T08:33:53;10.23;;;5.97;;
22172;SDS011;11252;50.596;17.648;2022-11-03T08:36:20;19.97;;;9.70;;
22172;SDS011;11252;50.596;17.648;2022-11-03T08:38:48;10.70;;;5.13;;
22172;SDS011;11252;50.596;17.648;2022-11-03T08:41:15;20.13;;;8.87;;
22172;SDS011;11252;50.596;17.648;2022-11-03T08:43:42;17.17;;;7.17;;
22172;SDS011;11252;50.596;17.648;2022-11-03T08:46:10;13.07;;;4.10;;
22172;SDS011;11252;50.596;17.648;2022-11-03T08:48:43;6.43;;;3.63;;
22172;SDS011;11252;50.596;17.648;2022-11-03T08:51:12;16.27;;;4.40;;
22172;SDS011;11252;50.596;17.648;2022-11-03T08:53:40;11.37;;;4.60;;
22172;SDS011;11252;50.596;17.648;2022-11-03T08:56:08;11.03;;;5.00;;
22172;SDS011;11252;50.596;17.648;2022-11-03T08:58:40;8.77;;;5.30;;
22172;SDS011;11252;50.596;17.648;2022-11-03T09:01:09;10.90;;;5.57;;
22172;SDS011;11252;50.596;17.648;2022-11-03T09:03:37;10.10;;;3.80;;
22172;SDS011;11252;50.596;17.648;2022-11-03T09:06:05;9.63;;;4.87;;
22172;SDS011;11252;50.596;17.648;2022-11-03T09:08:32;9.90;;;4.37;;
22172;SDS011;11252;50.596;17.648;2022-11-03T09:11:20;10.03;;;4.77;;
22172;SDS011;11252;50.596;17.648;2022-11-03T09:13:47;9.63;;;4.27;;
22172;SDS011;11252;50.596;17.648;2022-11-03T09:16:14;9.07;;;3.67;;
22172;SDS011;11252;50.596;17.648;2022-11-03T09:18:42;8.17;;;4.00;;
22172;SDS011;11252;50.596;17.648;2022-11-03T09:21:11;11.40;;;5.77;;
22172;SDS011;11252;50.596;17.648;2022-11-03T09:23:40;9.77;;;3.90;;
22172;SDS011;11252;50.596;17.648;2022-11-03T09:26:07;11.37;;;4.50;;
22172;SDS011;11252;50.596;17.648;2022-11-03T09:28:35;8.57;;;4.20;;
22172;SDS011;11252;50.596;17.648;2022-11-03T09:31:02;15.37;;;5.50;;
22172;SDS011;11252;50.596;17.648;2022-11-03T09:33:29;10.70;;;4.63;;
22172;SDS011;11252;50.596;17.648;2022-11-03T09:35:57;11.33;;;4.27;;
22172;SDS011;11252;50.596;17.648;2022-11-03T09:38:24;10.33;;;4.50;;
22172;SDS011;11252;50.596;17.648;2022-11-03T09:40:52;16.07;;;4.80;;
22172;SDS011;11252;50.596;17.648;2022-11-03T09:43:20;8.97;;;4.23;;
22172;SDS011;11252;50.596;17.648;2022-11-03T09:45:48;7.77;;;4.47;;
22172;SDS011;11252;50.596;17.648;2022-11-03T09:48:15;8.83;;;3.90;;
22172;SDS011;11252;50.596;17.648;2022-11-03T09:50:42;8.33;;;4.53;;
22172;SDS011;11252;50.596;17.648;2022-11-03T09:53:10;13.43;;;4.40;;
22172;SDS011;11252;50.596;17.648;2022-11-03T09:55:38;18.73;;;9.13;;
22172;SDS011;11252;50.596;17.648;2022-11-03T09:58:09;15.33;;;6.23;;
22172;SDS011;11252;50.596;17.648;2022-11-03T10:00:40;16.77;;;7.20;;
22172;SDS011;11252;50.596;17.648;2022-11-03T10:03:10;11.57;;;5.60;;
22172;SDS011;11252;50.596;17.648;2022-11-03T10:05:39;14.80;;;8.83;;
22172;SDS011;11252;50.596;17.648;2022-11-03T10:08:11;16.53;;;9.13;;
22172;SDS011;11252;50.596;17.648;2022-11-03T10:10:49;13.83;;;7.00;;
22172;SDS011;11252;50.596;17.648;2022-11-03T10:13:21;11.03;;;4.30;;
22172;SDS011;11252;50.596;17.648;2022-11-03T10:15:55;9.80;;;4.50;;
22172;SDS011;11252;50.596;17.648;2022-11-03T10:18:23;15.63;;;8.70;;
22172;SDS011;11252;50.596;17.648;2022-11-03T10:20:52;11.63;;;4.43;;
22172;SDS011;11252;50.596;17.648;2022-11-03T10:23:20;11.07;;;3.90;;
22172;SDS011;11252;50.596;17.648;2022-11-03T10:25:47;16.73;;;8.43;;
22172;SDS011;11252;50.596;17.648;2022-11-03T10:28:16;14.47;;;6.90;;
22172;SDS011;11252;50.596;17.648;2022-11-03T10:33:51;13.40;;;7.40;;
22172;SDS011;11252;50.596;17.648;2022-11-03T10:36:27;10.70;;;5.67;;
22172;SDS011;11252;50.596;17.648;2022-11-03T10:38:56;11.10;;;4.73;;
22172;SDS011;11252;50.596;17.648;2022-11-03T10:41:27;13.03;;;5.47;;
22172;SDS011;11252;50.596;17.648;2022-11-03T10:47:00;12.87;;;6.30;;
22172;SDS011;11252;50.596;17.648;2022-11-03T10:49:32;10.57;;;4.33;;
22172;SDS011;11252;50.596;17.648;2022-11-03T10:54:50;13.13;;;5.10;;
22172;SDS011;11252;50.596;17.648;2022-11-03T10:57:19;9.50;;;4.30;;
22172;SDS011;11252;50.596;17.648;2022-11-03T10:59:48;18.80;;;6.17;;
22172;SDS011;11252;50.596;17.648;2022-11-03T11:02:18;9.27;;;5.17;;
22172;SDS011;11252;50.596;17.648;2022-11-03T11:04:48;12.13;;;5.30;;
22172;SDS011;11252;50.596;17.648;2022-11-03T11:07:32;11.03;;;5.53;;
22172;SDS011;11252;50.596;17.648;2022-11-03T11:10:12;10.30;;;4.77;;
22172;SDS011;11252;50.596;17.648;2022-11-03T11:13:01;13.23;;;5.53;;
22172;SDS011;11252;50.596;17.648;2022-11-03T11:15:57;12.17;;;5.70;;
22172;SDS011;11252;50.596;17.648;2022-11-03T11:20:57;10.30;;;4.83;;
22172;SDS011;11252;50.596;17.648;2022-11-03T11:36:35;8.47;;;6.27;;
22172;SDS011;11252;50.596;17.648;2022-11-03T11:55:28;11.80;;;5.60;;
22172;SDS011;11252;50.596;17.648;2022-11-03T11:57:59;11.57;;;5.50;;
22172;SDS011;11252;50.596;17.648;2022-11-03T12:00:30;12.70;;;5.57;;
22172;SDS011;11252;50.596;17.648;2022-11-03T12:03:00;15.73;;;4.83;;
22172;SDS011;11252;50.596;17.648;2022-11-03T12:05:32;15.03;;;5.13;;
22172;SDS011;11252;50.596;17.648;2022-11-03T12:08:15;7.07;;;4.67;;
22172;SDS011;11252;50.596;17.648;2022-11-03T12:10:53;12.37;;;5.40;;
22172;SDS011;11252;50.596;17.648;2022-11-03T12:16:31;13.87;;;6.90;;
22172;SDS011;11252;50.596;17.648;2022-11-03T12:24:55;9.73;;;5.50;;
22172;SDS011;11252;50.596;17.648;2022-11-03T12:29:51;9.80;;;4.72;;
22172;SDS011;11252;50.596;17.648;2022-11-03T12:32:19;8.52;;;5.00;;
22172;SDS011;11252;50.596;17.648;2022-11-03T12:35:03;10.30;;;4.72;;
22172;SDS011;11252;50.596;17.648;2022-11-03T12:37:32;8.63;;;4.93;;
22172;SDS011;11252;50.596;17.648;2022-11-03T12:39:59;7.32;;;4.55;;
22172;SDS011;11252;50.596;17.648;2022-11-03T12:42:26;8.40;;;4.20;;
22172;SDS011;11252;50.596;17.648;2022-11-03T12:44:54;9.95;;;4.30;;
22172;SDS011;11252;50.596;17.648;2022-11-03T12:47:21;7.72;;;3.75;;
22172;SDS011;11252;50.596;17.648;2022-11-03T12:49:49;5.68;;;3.90;;
22172;SDS011;11252;50.596;17.648;2022-11-03T12:52:16;6.93;;;3.42;;
22172;SDS011;11252;50.596;17.648;2022-11-03T12:54:44;8.82;;;3.97;;
22172;SDS011;11252;50.596;17.648;2022-11-03T12:57:11;9.27;;;5.05;;
22172;SDS011;11252;50.596;17.648;2022-11-03T12:59:39;6.30;;;4.05;;
22172;SDS011;11252;50.596;17.648;2022-11-03T13:02:11;10.30;;;4.18;;
22172;SDS011;11252;50.596;17.648;2022-11-03T13:04:39;8.32;;;4.47;;
22172;SDS011;11252;50.596;17.648;2022-11-03T13:07:06;9.27;;;4.15;;
22172;SDS011;11252;50.596;17.648;2022-11-03T13:09:34;11.23;;;4.18;;
22172;SDS011;11252;50.596;17.648;2022-11-03T13:12:01;5.13;;;3.20;;
22172;SDS011;11252;50.596;17.648;2022-11-03T13:14:47;6.78;;;3.92;;
22172;SDS011;11252;50.596;17.648;2022-11-03T13:17:15;8.60;;;3.97;;
22172;SDS011;11252;50.596;17.648;2022-11-03T13:19:42;11.93;;;6.07;;
22172;SDS011;11252;50.596;17.648;2022-11-03T13:22:09;9.63;;;4.40;;
22172;SDS011;11252;50.596;17.648;2022-11-03T13:24:37;8.60;;;3.58;;
22172;SDS011;11252;50.596;17.648;2022-11-03T13:27:05;7.80;;;4.38;;
22172;SDS011;11252;50.596;17.648;2022-11-03T13:29:32;11.43;;;4.07;;
22172;SDS011;11252;50.596;17.648;2022-11-03T13:32:01;10.02;;;4.15;;
22172;SDS011;11252;50.596;17.648;2022-11-03T13:34:29;9.73;;;4.00;;
22172;SDS011;11252;50.596;17.648;2022-11-03T13:36:57;6.50;;;3.53;;
22172;SDS011;11252;50.596;17.648;2022-11-03T13:39:25;6.97;;;3.23;;
22172;SDS011;11252;50.596;17.648;2022-11-03T13:41:52;13.40;;;5.30;;
22172;SDS011;11252;50.596;17.648;2022-11-03T13:44:20;17.38;;;5.18;;
22172;SDS011;11252;50.596;17.648;2022-11-03T13:46:47;9.63;;;5.17;;
22172;SDS011;11252;50.596;17.648;2022-11-03T13:49:14;9.63;;;4.20;;
22172;SDS011;11252;50.596;17.648;2022-11-03T13:52:02;8.05;;;4.18;;
22172;SDS011;11252;50.596;17.648;2022-11-03T13:54:30;9.02;;;3.80;;
22172;SDS011;11252;50.596;17.648;2022-11-03T13:57:17;7.90;;;4.57;;
22172;SDS011;11252;50.596;17.648;2022-11-03T14:00:05;11.63;;;4.30;;
22172;SDS011;11252;50.596;17.648;2022-11-03T14:02:34;7.60;;;4.30;;
22172;SDS011;11252;50.596;17.648;2022-11-03T14:05:21;11.50;;;6.93;;
22172;SDS011;11252;50.596;17.648;2022-11-03T14:07:49;9.03;;;4.73;;
22172;SDS011;11252;50.596;17.648;2022-11-03T14:10:17;9.23;;;4.97;;
22172;SDS011;11252;50.596;17.648;2022-11-03T14:12:44;11.40;;;4.63;;
22172;SDS011;11252;50.596;17.648;2022-11-03T14:15:12;9.47;;;4.10;;
22172;SDS011;11252;50.596;17.648;2022-11-03T14:17:39;6.37;;;3.53;;
22172;SDS011;11252;50.596;17.648;2022-11-03T14:20:08;9.63;;;4.93;;
22172;SDS011;11252;50.596;17.648;2022-11-03T14:22:38;8.87;;;4.13;;
22172;SDS011;11252;50.596;17.648;2022-11-03T14:25:06;9.70;;;4.53;;
22172;SDS011;11252;50.596;17.648;2022-11-03T14:27:34;7.63;;;4.57;;
22172;SDS011;11252;50.596;17.648;2022-11-03T14:30:02;7.87;;;4.53;;
22172;SDS011;11252;50.596;17.648;2022-11-03T14:32:30;9.00;;;5.07;;
22172;SDS011;11252;50.596;17.648;2022-11-03T14:34:57;12.27;;;7.17;;
22172;SDS011;11252;50.596;17.648;2022-11-03T14:37:25;16.40;;;8.97;;
22172;SDS011;11252;50.596;17.648;2022-11-03T14:39:52;16.10;;;8.13;;
22172;SDS011;11252;50.596;17.648;2022-11-03T14:42:20;13.73;;;8.80;;
22172;SDS011;11252;50.596;17.648;2022-11-03T14:44:47;14.97;;;7.73;;
22172;SDS011;11252;50.596;17.648;2022-11-03T14:47:16;10.57;;;5.90;;
22172;SDS011;11252;50.596;17.648;2022-11-03T14:49:44;10.73;;;6.97;;
22172;SDS011;11252;50.596;17.648;2022-11-03T14:52:12;11.60;;;6.57;;
22172;SDS011;11252;50.596;17.648;2022-11-03T14:54:40;13.23;;;7.47;;
22172;SDS011;11252;50.596;17.648;2022-11-03T14:57:08;18.93;;;9.63;;
22172;SDS011;11252;50.596;17.648;2022-11-03T14:59:35;18.20;;;11.10;;
22172;SDS011;11252;50.596;17.648;2022-11-03T15:02:02;22.07;;;10.80;;
22172;SDS011;11252;50.596;17.648;2022-11-03T15:04:30;27.20;;;15.20;;
22172;SDS011;11252;50.596;17.648;2022-11-03T15:06:58;20.67;;;11.03;;
22172;SDS011;11252;50.596;17.648;2022-11-03T15:09:25;19.97;;;10.30;;
22172;SDS011;11252;50.596;17.648;2022-11-03T15:11:52;32.97;;;20.10;;
22172;SDS011;11252;50.596;17.648;2022-11-03T15:14:19;36.27;;;19.43;;
22172;SDS011;11252;50.596;17.648;2022-11-03T15:16:47;21.13;;;11.27;;
22172;SDS011;11252;50.596;17.648;2022-11-03T15:19:14;17.10;;;9.17;;
22172;SDS011;11252;50.596;17.648;2022-11-03T15:21:42;14.27;;;8.67;;
22172;SDS011;11252;50.596;17.648;2022-11-03T15:24:09;17.37;;;8.97;;
22172;SDS011;11252;50.596;17.648;2022-11-03T15:26:56;16.23;;;9.33;;
22172;SDS011;11252;50.596;17.648;2022-11-03T15:29:24;14.70;;;8.33;;
22172;SDS011;11252;50.596;17.648;2022-11-03T15:31:52;15.43;;;8.20;;
22172;SDS011;11252;50.596;17.648;2022-11-03T15:34:20;16.33;;;10.17;;
22172;SDS011;11252;50.596;17.648;2022-11-03T15:36:47;19.37;;;9.10;;
22172;SDS011;11252;50.596;17.648;2022-11-03T15:39:14;15.87;;;9.30;;
22172;SDS011;11252;50.596;17.648;2022-11-03T15:41:43;20.50;;;7.63;;
22172;SDS011;11252;50.596;17.648;2022-11-03T15:44:11;19.40;;;7.57;;
22172;SDS011;11252;50.596;17.648;2022-11-03T15:46:38;17.90;;;7.23;;
22172;SDS011;11252;50.596;17.648;2022-11-03T15:49:05;11.40;;;5.40;;
22172;SDS011;11252;50.596;17.648;2022-11-03T15:51:32;10.40;;;5.60;;
22172;SDS011;11252;50.596;17.648;2022-11-03T15:54:00;17.47;;;10.03;;
22172;SDS011;11252;50.596;17.648;2022-11-03T15:56:28;17.20;;;10.30;;
22172;SDS011;11252;50.596;17.648;2022-11-03T15:58:55;21.67;;;10.90;;
22172;SDS011;11252;50.596;17.648;2022-11-03T16:01:23;22.87;;;17.17;;
22172;SDS011;11252;50.596;17.648;2022-11-03T16:03:50;26.27;;;16.67;;
22172;SDS011;11252;50.596;17.648;2022-11-03T16:06:18;33.57;;;23.43;;
22172;SDS011;11252;50.596;17.648;2022-11-03T16:09:05;39.00;;;20.13;;
22172;SDS011;11252;50.596;17.648;2022-11-03T16:11:33;31.03;;;20.90;;